Time;durP1;ratioP1;P1;durP2;ratioP2;P2;SDS_P1;SDS_P2;PMS_P1;PMS_P2;Temp;Humidity;BMP_temperature;BMP_pressure;BME280_temperature;BME280_humidity;BME280_pressure;Samples;Min_cycle;Max_cycle;Signal;HPM_P1;HPM_P2
2023/02/09 00:01:56;;;;;;;21.13;9.60;;;-0.40;99.90;;;;;;5097555;28;20055;-75
2023/02/09 00:04:21;;;;;;;18.70;9.10;;;-0.40;99.90;;;;;;5098027;28;20070;-75
2023/02/09 00:06:47;;;;;;;24.30;10.40;;;-0.50;99.90;;;;;;5097508;28;20457;-75
2023/02/09 00:09:13;;;;;;;23.80;9.97;;;-0.50;99.90;;;;;;5115936;28;20035;-75
2023/02/09 00:14:22;;;;;;;20.20;9.83;;;-0.50;99.90;;;;;;5115939;28;20035;-75
2023/02/09 00:16:49;;;;;;;20.87;9.37;;;-0.60;99.90;;;;;;5096973;28;20020;-75
2023/02/09 00:19:15;;;;;;;22.03;10.43;;;-0.60;99.90;;;;;;5097833;28;20394;-76
2023/02/09 00:21:41;;;;;;;21.67;9.13;;;-0.60;99.90;;;;;;5096092;28;20408;-83
2023/02/09 00:24:09;;;;;;;19.93;9.70;;;-0.60;99.90;;;;;;5116049;28;20051;-76
2023/02/09 00:26:35;;;;;;;22.30;9.50;;;-0.70;99.90;;;;;;5097771;28;20027;-76
2023/02/09 00:29:01;;;;;;;21.40;9.50;;;-0.70;99.90;;;;;;5115579;28;20168;-76
2023/02/09 00:31:27;;;;;;;21.67;9.57;;;-0.70;99.90;;;;;;5115600;28;20027;-76
2023/02/09 00:33:52;;;;;;;24.87;10.23;;;-0.70;99.90;;;;;;5116106;28;20106;-76
2023/02/09 00:36:18;;;;;;;21.77;9.53;;;-0.80;99.90;;;;;;5099141;28;20024;-76
2023/02/09 00:38:44;;;;;;;19.83;8.83;;;-0.90;99.90;;;;;;5097732;28;20481;-77
2023/02/09 00:41:10;;;;;;;22.63;9.27;;;-0.80;99.90;;;;;;5116183;28;20020;-76
2023/02/09 00:43:36;;;;;;;21.33;10.23;;;-0.80;99.90;;;;;;5097692;28;20051;-76
2023/02/09 00:46:02;;;;;;;20.73;9.63;;;-0.70;99.90;;;;;;5115009;28;20288;-77
2023/02/09 00:48:28;;;;;;;24.57;10.90;;;-0.80;99.90;;;;;;5097500;28;20035;-76
2023/02/09 00:50:53;;;;;;;22.80;9.50;;;-0.90;99.90;;;;;;5097266;28;20032;-76
2023/02/09 00:53:21;;;;;;;21.80;9.77;;;-0.90;99.90;;;;;;5115317;28;20077;-76
2023/02/09 00:55:46;;;;;;;21.50;9.93;;;-0.80;99.90;;;;;;5114845;28;20039;-76
2023/02/09 00:58:12;;;;;;;21.30;9.33;;;-0.80;99.90;;;;;;5115574;28;20016;-76
2023/02/09 01:00:38;;;;;;;21.63;9.70;;;-0.90;99.90;;;;;;5115761;28;20020;-77
2023/02/09 01:03:04;;;;;;;23.33;9.47;;;-0.90;99.90;;;;;;5114950;28;20039;-77
2023/02/09 01:05:30;;;;;;;23.50;9.37;;;-0.90;99.90;;;;;;5097171;28;20028;-77
2023/02/09 01:07:55;;;;;;;24.23;10.93;;;-1.00;99.90;;;;;;5114659;28;20034;-79
2023/02/09 01:10:21;;;;;;;21.80;10.00;;;-1.00;99.90;;;;;;5097305;28;20020;-76
2023/02/09 01:12:47;;;;;;;21.33;10.10;;;-0.90;99.90;;;;;;5096418;28;20545;-78
2023/02/09 01:15:12;;;;;;;26.13;10.47;;;-0.90;99.90;;;;;;5115420;28;20392;-77
2023/02/09 01:17:38;;;;;;;21.50;10.00;;;-0.80;99.90;;;;;;5096517;28;20032;-77
2023/02/09 01:20:07;;;;;;;21.97;9.43;;;-0.80;99.90;;;;;;5114688;28;20098;-77
2023/02/09 01:22:34;;;;;;;22.83;9.53;;;-0.80;99.90;;;;;;5097051;28;20112;-76
2023/02/09 01:25:00;;;;;;;21.50;9.37;;;-0.80;99.90;;;;;;5115037;28;20027;-77
2023/02/09 01:27:26;;;;;;;21.93;10.00;;;-0.70;99.90;;;;;;5096416;28;20038;-77
2023/02/09 01:29:51;;;;;;;19.70;9.60;;;-0.70;99.90;;;;;;5096288;28;20022;-77
2023/02/09 01:32:17;;;;;;;21.43;8.77;;;-0.70;99.90;;;;;;5096685;28;20175;-76
2023/02/09 01:34:43;;;;;;;23.13;9.70;;;-0.70;99.90;;;;;;5115084;28;20038;-77
2023/02/09 01:37:08;;;;;;;21.80;9.80;;;-0.80;99.90;;;;;;5096329;28;20035;-77
2023/02/09 01:39:34;;;;;;;23.63;9.47;;;-0.90;99.90;;;;;;5096846;28;20028;-77
2023/02/09 01:41:59;;;;;;;23.30;9.30;;;-0.90;99.90;;;;;;5095994;28;20039;-77
2023/02/09 01:44:25;;;;;;;20.33;9.30;;;-0.90;99.90;;;;;;5114668;28;20034;-77
2023/02/09 01:46:51;;;;;;;20.23;9.30;;;-1.00;99.90;;;;;;5113921;28;20058;-78
2023/02/09 01:49:20;;;;;;;23.40;10.00;;;-1.00;99.90;;;;;;5096341;28;20067;-76
2023/02/09 01:51:52;;;;;;;21.70;9.63;;;-0.90;99.90;;;;;;5096070;28;20066;-77
2023/02/09 01:54:28;;;;;;;20.10;9.63;;;-0.90;99.90;;;;;;5096187;28;20073;-77
2023/02/09 01:57:01;;;;;;;22.60;9.67;;;-0.90;99.90;;;;;;5095433;28;20039;-78
2023/02/09 01:59:27;;;;;;;24.30;9.50;;;-0.90;99.90;;;;;;5096706;28;20055;-77
2023/02/09 02:01:53;;;;;;;20.47;9.63;;;-0.90;99.90;;;;;;5095869;28;20471;-77
2023/02/09 02:04:20;;;;;;;21.50;10.20;;;-0.90;99.90;;;;;;5114678;28;20055;-77
2023/02/09 02:06:46;;;;;;;24.70;9.73;;;-1.00;99.90;;;;;;5095771;28;20026;-76
2023/02/09 02:09:15;;;;;;;20.53;9.47;;;-1.00;99.90;;;;;;5095378;28;20050;-76
2023/02/09 02:11:44;;;;;;;24.07;10.27;;;-1.00;99.90;;;;;;5095819;28;20020;-76
2023/02/09 02:14:31;;;;;;;20.67;9.50;;;-1.00;99.90;;;;;;5095111;28;20031;-76
2023/02/09 02:17:24;;;;;;;20.83;9.60;;;-1.00;99.90;;;;;;5095344;28;20035;-76
2023/02/09 02:20:11;;;;;;;23.00;9.60;;;-1.00;99.90;;;;;;5096019;28;20084;-77
2023/02/09 02:22:56;;;;;;;23.17;9.83;;;-1.10;99.90;;;;;;5114233;28;20058;-76
2023/02/09 02:25:59;;;;;;;20.67;9.67;;;-1.00;99.90;;;;;;5113831;28;20157;-76
2023/02/09 02:28:49;;;;;;;23.83;9.73;;;-1.00;99.90;;;;;;5095521;28;20376;-76
2023/02/09 02:31:36;;;;;;;29.23;10.00;;;-1.00;99.90;;;;;;5095280;28;20069;-76
2023/02/09 02:34:22;;;;;;;22.17;9.87;;;-1.10;99.90;;;;;;5095011;28;20031;-75
2023/02/09 02:37:17;;;;;;;24.57;8.97;;;-1.10;99.90;;;;;;5095239;28;20073;-75
2023/02/09 02:39:50;;;;;;;20.17;9.63;;;-1.10;99.90;;;;;;5113768;28;20028;-75
2023/02/09 02:45:21;;;;;;;25.30;9.57;;;-1.20;99.90;;;;;;5112792;28;20038;-75
2023/02/09 02:48:14;;;;;;;19.77;9.47;;;-1.30;99.90;;;;;;5095149;28;20464;-75
2023/02/09 02:50:55;;;;;;;21.63;9.20;;;-1.40;99.90;;;;;;5095307;28;20031;-75
2023/02/09 02:53:24;;;;;;;27.13;9.70;;;-1.40;99.90;;;;;;5113025;28;20024;-75
2023/02/09 02:55:52;;;;;;;19.50;8.63;;;-1.50;99.90;;;;;;5094323;28;20024;-86
2023/02/09 02:58:21;;;;;;;22.10;9.50;;;-1.50;99.90;;;;;;5113438;28;20089;-75
2023/02/09 03:00:50;;;;;;;19.97;9.27;;;-1.50;99.90;;;;;;5113133;28;20102;-75
2023/02/09 03:03:21;;;;;;;20.30;8.50;;;-1.60;99.90;;;;;;5095067;28;20063;-76
2023/02/09 03:05:47;;;;;;;22.47;9.20;;;-1.60;99.90;;;;;;5095062;28;20034;-76
2023/02/09 03:08:13;;;;;;;20.67;8.77;;;-1.60;99.90;;;;;;5094569;28;20133;-77
2023/02/09 03:10:40;;;;;;;23.17;9.37;;;-1.60;99.90;;;;;;5095192;28;20055;-76
2023/02/09 03:13:23;;;;;;;19.47;8.67;;;-1.60;99.90;;;;;;5112783;28;20028;-76
2023/02/09 03:19:41;;;;;;;20.75;8.52;;;-1.60;99.90;;;;;;5112808;28;20267;-76
2023/02/09 03:22:28;;;;;;;22.33;8.83;;;-1.70;99.90;;;;;;5094345;28;20090;-77
2023/02/09 03:25:00;;;;;;;21.00;9.00;;;-1.70;99.90;;;;;;5112889;28;20379;-78
2023/02/09 03:27:40;;;;;;;23.13;9.95;;;-1.70;99.90;;;;;;5113634;28;20059;-77
2023/02/09 03:30:08;;;;;;;23.80;9.57;;;-1.70;99.90;;;;;;5094845;28;20069;-77
2023/02/09 03:32:39;;;;;;;25.10;9.77;;;-1.80;99.90;;;;;;5113122;28;20050;-74
2023/02/09 03:35:07;;;;;;;26.67;10.10;;;-1.90;99.90;;;;;;5094231;28;20092;-75
2023/02/09 03:37:32;;;;;;;21.10;9.83;;;-1.90;99.90;;;;;;5113195;28;20383;-76
2023/02/09 03:39:58;;;;;;;21.57;9.77;;;-2.00;99.90;;;;;;5112710;28;20024;-76
2023/02/09 03:42:24;;;;;;;20.47;9.70;;;-2.10;99.90;;;;;;5095080;28;20035;-76
2023/02/09 03:44:49;;;;;;;19.83;8.60;;;-2.20;99.90;;;;;;5113019;28;20453;-76
2023/02/09 03:47:15;;;;;;;22.47;9.03;;;-2.30;99.90;;;;;;5094091;28;20031;-76
2023/02/09 03:49:41;;;;;;;19.17;9.23;;;-2.30;99.90;;;;;;5113164;28;20028;-76
2023/02/09 03:52:10;;;;;;;24.47;10.10;;;-2.30;99.90;;;;;;5094514;28;20031;-76
2023/02/09 03:54:36;;;;;;;24.90;9.80;;;-2.40;99.90;;;;;;5095636;28;20425;-77
2023/02/09 03:57:01;;;;;;;23.60;9.87;;;-2.30;99.90;;;;;;5098375;28;20100;-77
2023/02/09 03:59:27;;;;;;;23.30;9.93;;;-2.30;99.90;;;;;;5098416;28;20030;-77
2023/02/09 04:01:57;;;;;;;22.87;10.00;;;-2.30;99.90;;;;;;5098462;28;20473;-77
2023/02/09 04:04:24;;;;;;;21.80;9.07;;;-2.30;99.90;;;;;;5098144;28;20019;-76
2023/02/09 04:06:50;;;;;;;21.90;9.50;;;-2.30;99.90;;;;;;5098831;28;20026;-76
2023/02/09 04:09:16;;;;;;;19.90;8.53;;;-2.20;99.90;;;;;;5097880;28;20049;-76
2023/02/09 04:11:42;;;;;;;20.00;8.97;;;-2.20;99.90;;;;;;5098196;28;20552;-76
2023/02/09 04:14:08;;;;;;;24.20;10.83;;;-2.20;99.90;;;;;;5097957;28;20118;-75
2023/02/09 04:16:34;;;;;;;19.97;8.87;;;-2.20;99.90;;;;;;5098344;28;20043;-76
2023/02/09 04:19:00;;;;;;;25.53;9.90;;;-2.20;99.90;;;;;;5097603;28;20081;-77
2023/02/09 04:21:26;;;;;;;25.47;9.83;;;-2.20;99.90;;;;;;5116330;28;20047;-77
2023/02/09 04:23:52;;;;;;;23.70;10.73;;;-2.20;99.90;;;;;;5097766;28;20047;-75
2023/02/09 04:26:18;;;;;;;21.60;10.13;;;-2.40;99.90;;;;;;5097342;28;20031;-75
2023/02/09 04:28:43;;;;;;;23.77;10.03;;;-2.50;99.90;;;;;;5115731;28;20035;-75
2023/02/09 04:31:09;;;;;;;24.73;10.50;;;-2.40;99.90;;;;;;5115319;28;20072;-75
2023/02/09 04:33:35;;;;;;;25.67;10.07;;;-2.40;99.90;;;;;;5097474;28;20031;-75
2023/02/09 04:36:01;;;;;;;25.47;9.70;;;-2.50;99.90;;;;;;5115007;28;20028;-75
2023/02/09 04:38:28;;;;;;;24.03;10.23;;;-2.50;99.90;;;;;;5097396;28;20480;-75
2023/02/09 04:40:55;;;;;;;25.17;9.90;;;-2.50;99.90;;;;;;5101958;28;20118;-74
2023/02/09 04:43:21;;;;;;;22.77;10.10;;;-2.60;99.90;;;;;;5097031;28;20031;-75
2023/02/09 04:45:47;;;;;;;23.50;10.20;;;-2.60;99.90;;;;;;5097492;28;20095;-76
2023/02/09 04:48:15;;;;;;;24.90;10.10;;;-2.60;99.90;;;;;;5097182;28;20473;-75
2023/02/09 04:50:41;;;;;;;21.67;9.90;;;-2.60;99.90;;;;;;5097421;28;20032;-76
2023/02/09 04:53:06;;;;;;;25.83;10.23;;;-2.60;99.90;;;;;;5096963;28;20114;-76
2023/02/09 04:55:35;;;;;;;26.43;10.00;;;-2.70;99.90;;;;;;5097775;28;20430;-75
2023/02/09 05:00:44;;;;;;;22.20;9.50;;;-2.80;99.90;;;;;;5116128;28;20423;-75
2023/02/09 05:03:10;;;;;;;21.20;8.97;;;-2.80;99.90;;;;;;5097163;28;20031;-75
2023/02/09 05:05:39;;;;;;;22.37;10.13;;;-2.80;99.90;;;;;;5115532;28;20031;-75
2023/02/09 05:08:05;;;;;;;24.03;10.17;;;-2.80;99.90;;;;;;5097518;28;20019;-76
2023/02/09 05:10:30;;;;;;;19.93;9.33;;;-2.80;99.90;;;;;;5098754;28;20031;-75
2023/02/09 05:12:56;;;;;;;24.43;10.23;;;-2.90;99.90;;;;;;5098575;28;20023;-77
2023/02/09 05:15:21;;;;;;;20.73;8.57;;;-2.80;99.90;;;;;;5116039;28;20039;-76
2023/02/09 05:17:47;;;;;;;26.20;10.40;;;-2.80;99.90;;;;;;5116286;28;20027;-75
2023/02/09 05:20:13;;;;;;;22.63;9.67;;;-2.70;99.90;;;;;;5097482;28;20031;-75
2023/02/09 05:22:38;;;;;;;19.70;8.73;;;-2.70;99.90;;;;;;5097039;28;20450;-75
2023/02/09 05:25:04;;;;;;;24.10;10.00;;;-2.60;99.90;;;;;;5114997;28;20031;-76
2023/02/09 05:27:30;;;;;;;27.10;11.17;;;-2.60;99.90;;;;;;5116054;28;20024;-75
2023/02/09 05:29:55;;;;;;;23.57;9.70;;;-2.60;99.90;;;;;;5115191;28;20030;-76
2023/02/09 05:32:21;;;;;;;23.03;10.30;;;-2.60;99.90;;;;;;5096296;28;20434;-75
2023/02/09 05:34:46;;;;;;;25.00;10.37;;;-2.70;99.90;;;;;;5096662;28;20096;-75
2023/02/09 05:37:12;;;;;;;27.17;11.10;;;-2.60;99.90;;;;;;5096038;28;20384;-75
2023/02/09 05:39:37;;;;;;;22.90;10.43;;;-2.70;99.90;;;;;;5096240;28;20028;-74
2023/02/09 05:42:15;;;;;;;26.53;10.10;;;-2.80;99.90;;;;;;5095960;28;20031;-74
2023/02/09 05:44:46;;;;;;;25.13;11.07;;;-2.90;99.90;;;;;;5096193;28;20024;-74
2023/02/09 05:47:14;;;;;;;26.03;10.57;;;-3.00;99.90;;;;;;5095786;28;20453;-74
2023/02/09 05:49:39;;;;;;;25.50;10.80;;;-3.10;99.90;;;;;;5096124;28;20027;-74
2023/02/09 05:52:06;;;;;;;24.13;10.07;;;-3.10;99.90;;;;;;5095478;28;20138;-74
2023/02/09 05:54:32;;;;;;;24.20;10.13;;;-3.00;99.90;;;;;;5114000;28;20490;-74
2023/02/09 05:56:58;;;;;;;27.87;11.07;;;-2.90;99.90;;;;;;5095855;28;20467;-74
2023/02/09 05:59:23;;;;;;;30.20;11.97;;;-3.00;99.90;;;;;;5095497;28;20038;-74
2023/02/09 06:01:49;;;;;;;27.03;11.23;;;-3.10;99.90;;;;;;5114029;28;20028;-74
2023/02/09 06:04:15;;;;;;;22.60;10.60;;;-3.10;99.90;;;;;;5113465;28;20036;-74
2023/02/09 06:06:41;;;;;;;30.90;12.70;;;-3.00;99.90;;;;;;5095819;28;20050;-74
2023/02/09 06:09:06;;;;;;;27.87;11.80;;;-2.90;99.90;;;;;;5095244;28;20380;-75
2023/02/09 06:11:32;;;;;;;25.10;10.13;;;-3.00;99.90;;;;;;5095741;28;20019;-76
2023/02/09 06:13:58;;;;;;;27.33;11.33;;;-3.00;99.90;;;;;;5114014;28;20094;-75
2023/02/09 06:16:24;;;;;;;29.23;11.40;;;-2.90;99.90;;;;;;5095259;28;20036;-76
2023/02/09 06:18:50;;;;;;;25.23;11.23;;;-2.90;99.90;;;;;;5094217;28;20114;-76
2023/02/09 06:21:15;;;;;;;27.90;11.27;;;-2.90;99.90;;;;;;5095174;28;20071;-75
2023/02/09 06:23:41;;;;;;;29.03;11.63;;;-3.00;99.90;;;;;;5095656;28;20118;-76
2023/02/09 06:26:07;;;;;;;25.43;11.07;;;-3.00;99.90;;;;;;5095470;28;20076;-77
2023/02/09 06:28:33;;;;;;;27.67;11.83;;;-3.10;99.90;;;;;;5095497;28;20024;-76
2023/02/09 06:30:59;;;;;;;24.93;10.63;;;-3.10;99.90;;;;;;5095905;28;20030;-76
2023/02/09 06:33:25;;;;;;;24.03;10.33;;;-3.10;99.90;;;;;;5113542;28;20032;-75
2023/02/09 06:35:50;;;;;;;26.50;10.53;;;-3.20;99.90;;;;;;5095479;28;20122;-75
2023/02/09 06:38:16;;;;;;;20.87;9.97;;;-3.20;99.90;;;;;;5112957;28;20019;-75
2023/02/09 06:40:41;;;;;;;25.77;10.50;;;-3.10;99.90;;;;;;5113954;28;20028;-75
2023/02/09 06:43:07;;;;;;;24.70;10.70;;;-3.10;99.90;;;;;;5095177;28;20028;-77
2023/02/09 06:45:32;;;;;;;31.53;10.87;;;-3.20;99.90;;;;;;5114026;28;20093;-76
2023/02/09 06:47:58;;;;;;;24.13;9.63;;;-3.20;99.90;;;;;;5095147;28;20028;-76
2023/02/09 06:50:24;;;;;;;27.03;11.07;;;-3.30;99.90;;;;;;5112781;28;20040;-77
2023/02/09 06:52:49;;;;;;;25.80;9.47;;;-3.40;99.90;;;;;;5113486;28;20035;-76
2023/02/09 06:55:15;;;;;;;25.93;11.10;;;-3.40;99.90;;;;;;5112916;28;20397;-76
2023/02/09 06:57:41;;;;;;;28.60;11.30;;;-3.40;99.90;;;;;;5113305;28;20122;-77
2023/02/09 07:00:08;;;;;;;26.40;10.90;;;-3.30;99.90;;;;;;5094709;28;20051;-77
2023/02/09 07:02:34;;;;;;;27.70;11.57;;;-3.30;99.90;;;;;;5113491;28;20040;-77
2023/02/09 07:04:59;;;;;;;36.57;12.20;;;-3.30;99.90;;;;;;5113507;28;20030;-77
2023/02/09 07:07:25;;;;;;;26.83;11.23;;;-3.20;99.90;;;;;;5094773;28;20426;-77
2023/02/09 07:09:51;;;;;;;23.70;11.57;;;-3.20;99.90;;;;;;5094842;28;20051;-77
2023/02/09 07:12:19;;;;;;;32.27;12.77;;;-3.30;99.90;;;;;;5094538;28;20038;-77
2023/02/09 07:14:44;;;;;;;29.43;11.83;;;-3.40;99.90;;;;;;5095063;28;20028;-77
2023/02/09 07:17:10;;;;;;;31.30;11.57;;;-3.40;99.90;;;;;;5094872;28;20031;-78
2023/02/09 07:19:35;;;;;;;22.30;10.77;;;-3.40;99.90;;;;;;5113441;28;20027;-77
2023/02/09 07:22:01;;;;;;;24.47;10.97;;;-3.50;99.90;;;;;;5113478;28;20055;-77
2023/02/09 07:24:27;;;;;;;24.57;11.17;;;-3.40;99.90;;;;;;5112581;28;20039;-77
2023/02/09 07:26:52;;;;;;;26.90;10.73;;;-3.40;99.90;;;;;;5095198;28;20035;-75
2023/02/09 07:29:18;;;;;;;26.83;11.70;;;-3.40;99.90;;;;;;5094814;28;20031;-76
2023/02/09 07:31:43;;;;;;;29.90;11.63;;;-3.30;99.90;;;;;;5093226;28;20035;-75
2023/02/09 07:34:09;;;;;;;26.73;11.87;;;-3.30;99.90;;;;;;5077744;28;20039;-76
2023/02/09 07:36:34;;;;;;;26.93;10.63;;;-3.30;99.90;;;;;;5078455;28;20032;-75
2023/02/09 07:39:00;;;;;;;26.57;11.43;;;-3.30;99.90;;;;;;5078221;28;20024;-75
2023/02/09 07:41:27;;;;;;;27.77;11.73;;;-3.30;99.90;;;;;;5077851;28;20114;-75
2023/02/09 07:43:54;;;;;;;27.67;11.80;;;-3.30;99.90;;;;;;5078201;28;20028;-75
2023/02/09 07:46:20;;;;;;;26.23;10.90;;;-3.30;99.90;;;;;;5077523;28;20047;-75
2023/02/09 07:48:47;;;;;;;29.70;12.83;;;-3.30;99.90;;;;;;5077642;28;20035;-76
2023/02/09 07:51:14;;;;;;;24.47;10.87;;;-3.20;99.90;;;;;;5077446;28;20027;-75
2023/02/09 07:53:40;;;;;;;26.97;12.20;;;-3.20;99.90;;;;;;5078032;28;20024;-76
2023/02/09 07:56:06;;;;;;;31.90;13.33;;;-3.10;99.90;;;;;;5078025;28;20094;-76
2023/02/09 07:58:32;;;;;;;32.73;13.67;;;-3.00;99.90;;;;;;5077460;28;20112;-76
2023/02/09 08:01:06;;;;;;;29.23;12.27;;;-3.10;99.90;;;;;;5077988;28;20021;-76
2023/02/09 08:03:34;;;;;;;30.00;12.60;;;-3.10;99.90;;;;;;5095729;28;20086;-76
2023/02/09 08:06:18;;;;;;;29.50;12.10;;;-3.00;99.90;;;;;;5077495;28;20040;-75
2023/02/09 08:08:48;;;;;;;31.23;12.40;;;-3.00;99.90;;;;;;5077759;28;20428;-76
2023/02/09 08:11:17;;;;;;;32.43;13.23;;;-2.90;99.90;;;;;;5077349;28;20028;-76
2023/02/09 08:13:43;;;;;;;33.33;13.07;;;-2.90;99.90;;;;;;5077647;28;20036;-76
2023/02/09 08:16:14;;;;;;;31.43;12.87;;;-2.80;99.90;;;;;;5077851;28;20114;-82
2023/02/09 08:18:51;;;;;;;31.37;13.47;;;-2.70;99.90;;;;;;5095923;28;20028;-75
2023/02/09 08:21:17;;;;;;;28.40;12.17;;;-2.70;99.90;;;;;;5098915;28;20044;-76
2023/02/09 08:23:46;;;;;;;30.30;13.50;;;-2.70;99.90;;;;;;5098162;28;20106;-75
2023/02/09 08:26:13;;;;;;;27.63;13.17;;;-2.60;99.90;;;;;;5097226;28;20110;-77
2023/02/09 08:28:43;;;;;;;33.00;13.37;;;-2.60;99.90;;;;;;5097756;28;20027;-77
2023/02/09 08:31:13;;;;;;;35.63;13.30;;;-2.50;99.90;;;;;;5116050;28;20373;-75
2023/02/09 08:33:39;;;;;;;38.13;14.50;;;-2.50;99.90;;;;;;5097502;28;20468;-77
2023/02/09 08:36:05;;;;;;;39.00;14.63;;;-2.40;99.90;;;;;;5097775;28;20028;-79
2023/02/09 08:38:30;;;;;;;41.57;16.43;;;-2.30;99.90;;;;;;5097421;28;20323;-77
2023/02/09 08:40:56;;;;;;;35.60;15.17;;;-2.30;99.90;;;;;;5097036;28;20423;-78
2023/02/09 08:43:21;;;;;;;43.80;15.87;;;-2.20;99.90;;;;;;5097667;28;20023;-79
2023/02/09 08:45:47;;;;;;;37.50;15.27;;;-2.20;99.90;;;;;;5097950;28;20020;-78
2023/02/09 08:48:13;;;;;;;30.20;14.37;;;-2.10;99.90;;;;;;5097738;28;20032;-79
2023/02/09 08:50:39;;;;;;;34.53;13.63;;;-2.10;99.90;;;;;;5115988;28;20027;-78
2023/02/09 08:53:05;;;;;;;34.23;14.47;;;-2.00;99.90;;;;;;5097707;28;20035;-76
2023/02/09 08:55:32;;;;;;;31.10;13.83;;;-1.90;99.90;;;;;;5096762;28;20855;-77
2023/02/09 08:57:58;;;;;;;31.17;13.07;;;-1.70;99.90;;;;;;5097695;28;20397;-77
2023/02/09 09:00:24;;;;;;;31.90;13.30;;;-1.70;99.90;;;;;;5097040;28;20035;-77
2023/02/09 09:02:50;;;;;;;31.63;13.00;;;-1.60;99.90;;;;;;5115084;28;20031;-77
2023/02/09 09:05:16;;;;;;;29.00;12.50;;;-1.60;99.90;;;;;;5114836;28;20019;-77
2023/02/09 09:07:42;;;;;;;35.80;12.93;;;-1.50;99.90;;;;;;5097061;28;20145;-77
2023/02/09 09:10:08;;;;;;;31.43;13.10;;;-1.50;99.90;;;;;;5097174;28;20055;-76
2023/02/09 09:12:34;;;;;;;30.63;12.63;;;-1.40;99.90;;;;;;5096559;28;20044;-77
2023/02/09 09:15:00;;;;;;;26.97;11.83;;;-1.40;99.90;;;;;;5096904;28;20034;-76
2023/02/09 09:17:25;;;;;;;33.83;13.87;;;-1.30;99.90;;;;;;5096190;28;20119;-77
2023/02/09 09:19:54;;;;;;;35.00;13.63;;;-1.30;99.90;;;;;;5115319;28;20453;-77
2023/02/09 09:22:21;;;;;;;28.67;11.33;;;-1.30;99.90;;;;;;5096183;28;20055;-77
2023/02/09 09:24:47;;;;;;;28.90;11.87;;;-1.20;99.90;;;;;;5096751;28;20384;-77
2023/02/09 09:27:14;;;;;;;26.43;11.50;;;-1.20;99.90;;;;;;5115104;28;20020;-77
2023/02/09 09:29:39;;;;;;;28.23;12.70;;;-1.20;99.90;;;;;;5114962;28;20027;-77
2023/02/09 09:32:06;;;;;;;30.20;12.23;;;-1.10;99.90;;;;;;5096677;28;20384;-77
2023/02/09 09:34:31;;;;;;;30.73;12.23;;;-1.00;99.90;;;;;;5096295;28;20380;-77
2023/02/09 09:36:57;;;;;;;28.27;12.13;;;-1.00;99.90;;;;;;5096726;28;20028;-77
2023/02/09 09:39:24;;;;;;;28.93;12.03;;;-1.00;99.90;;;;;;5096172;28;20413;-78
2023/02/09 09:41:54;;;;;;;31.23;13.40;;;-0.90;99.90;;;;;;5096877;28;20034;-78
2023/02/09 09:44:29;;;;;;;31.07;12.97;;;-0.80;99.90;;;;;;5096357;28;20051;-78
2023/02/09 09:46:59;;;;;;;30.63;13.13;;;-0.70;99.90;;;;;;5115322;28;20112;-78
2023/02/09 09:49:28;;;;;;;29.83;12.77;;;-0.70;99.90;;;;;;5096380;28;20039;-78
2023/02/09 09:52:08;;;;;;;31.73;13.27;;;-0.70;99.90;;;;;;5096327;28;20024;-78
2023/02/09 09:54:35;;;;;;;29.40;12.80;;;-0.60;99.90;;;;;;5114170;28;20426;-78
2023/02/09 09:57:01;;;;;;;30.13;12.37;;;-0.50;99.90;;;;;;5096564;28;20031;-78
2023/02/09 09:59:37;;;;;;;31.30;13.23;;;-0.50;99.90;;;;;;5095972;28;20024;-78
2023/02/09 10:02:17;;;;;;;30.27;13.30;;;-0.40;99.90;;;;;;5083410;28;20023;-77
2023/02/09 10:04:43;;;;;;;35.97;13.17;;;-0.40;99.90;;;;;;5096011;28;20030;-77
2023/02/09 10:07:17;;;;;;;28.90;13.13;;;-0.40;99.90;;;;;;5095799;28;20027;-78
2023/02/09 10:09:51;;;;;;;31.30;13.77;;;-0.30;99.90;;;;;;5096301;28;20098;-77
2023/02/09 10:12:40;;;;;;;28.60;12.27;;;-0.30;99.90;;;;;;5094921;28;20028;-79
2023/02/09 10:15:31;;;;;;;30.90;13.17;;;-0.30;99.90;;;;;;5095678;28;20035;-77
2023/02/09 10:17:57;;;;;;;31.20;13.13;;;-0.20;99.90;;;;;;5086729;28;20114;-79
2023/02/09 10:20:46;;;;;;;33.90;13.83;;;0.00;99.90;;;;;;5087368;28;20437;-82
2023/02/09 10:23:21;;;;;;;34.00;13.80;;;0.10;99.90;;;;;;5083407;28;20086;-83
2023/02/09 10:25:55;;;;;;;33.53;13.23;;;0.30;99.90;;;;;;5093230;28;20024;-80
2023/02/09 10:28:24;;;;;;;33.20;12.67;;;0.40;99.90;;;;;;5090040;28;20503;-80
2023/02/09 10:30:53;;;;;;;30.50;13.07;;;0.40;99.90;;;;;;5084614;28;20032;-79
2023/02/09 10:33:19;;;;;;;29.63;13.03;;;0.50;99.90;;;;;;5094736;28;20077;-79
2023/02/09 10:35:50;;;;;;;29.10;13.03;;;0.50;99.90;;;;;;5109262;28;20027;-80
2023/02/09 10:38:18;;;;;;;35.03;14.73;;;0.50;99.90;;;;;;5093423;28;20453;-83
2023/02/09 10:40:46;;;;;;;33.80;13.57;;;0.60;99.90;;;;;;5111796;28;20061;-79
2023/02/09 10:43:33;;;;;;;29.77;13.23;;;0.60;99.90;;;;;;5095626;28;20076;-79
2023/02/09 10:46:12;;;;;;;37.83;13.80;;;0.60;99.90;;;;;;5095778;28;20032;-78
2023/02/09 10:48:43;;;;;;;33.13;13.27;;;0.70;99.90;;;;;;5094964;28;20032;-81
2023/02/09 10:51:15;;;;;;;24.60;10.98;;;0.70;99.90;;;;;;5095567;28;20100;-79
2023/02/09 10:53:58;;;;;;;30.88;13.90;;;0.80;99.90;;;;;;5093356;28;20110;-79
2023/02/09 10:56:40;;;;;;;28.03;13.10;;;0.90;99.90;;;;;;5098732;28;20122;-78
2023/02/09 10:59:20;;;;;;;31.57;13.23;;;0.90;99.90;;;;;;5112787;28;20032;-81
2023/02/09 11:01:59;;;;;;;32.30;14.20;;;1.00;99.90;;;;;;5097328;28;20428;-80
2023/02/09 11:04:29;;;;;;;32.27;13.43;;;1.00;99.90;;;;;;5110684;28;20047;-80
2023/02/09 11:06:58;;;;;;;35.53;14.30;;;1.10;99.90;;;;;;5115291;28;20030;-79
2023/02/09 11:09:33;;;;;;;32.07;13.70;;;1.10;99.90;;;;;;5095817;28;20112;-78
2023/02/09 11:11:59;;;;;;;33.40;13.27;;;1.20;99.90;;;;;;5094961;28;20054;-78
2023/02/09 11:14:25;;;;;;;30.30;13.90;;;1.20;99.90;;;;;;5098278;28;20055;-77
2023/02/09 11:17:09;;;;;;;34.10;14.70;;;1.30;99.90;;;;;;5114557;28;20533;-79
2023/02/09 11:19:50;;;;;;;27.97;13.70;;;1.30;99.90;;;;;;5098290;28;20069;-78
2023/02/09 11:22:40;;;;;;;30.87;13.73;;;1.30;99.90;;;;;;5112722;28;20090;-79
2023/02/09 11:25:24;;;;;;;32.03;14.07;;;1.40;99.90;;;;;;5078959;28;20051;-76
2023/02/09 11:28:16;;;;;;;33.00;14.67;;;1.40;99.90;;;;;;5115567;28;20024;-77
2023/02/09 11:30:58;;;;;;;33.10;14.48;;;1.40;99.90;;;;;;5098301;28;20024;-78
2023/02/09 11:33:38;;;;;;;33.57;15.27;;;1.50;99.90;;;;;;5093788;28;20039;-77
2023/02/09 11:36:12;;;;;;;29.90;13.97;;;1.60;99.90;;;;;;5096401;28;20055;-77
2023/02/09 11:38:46;;;;;;;37.57;15.77;;;1.60;99.90;;;;;;5095286;28;20102;-77
2023/02/09 11:44:26;;;;;;;34.37;14.10;;;1.70;99.90;;;;;;5038959;28;20487;-78
2023/02/09 11:47:07;;;;;;;30.30;13.83;;;1.80;99.90;;;;;;5089398;28;20028;-79
2023/02/09 11:49:46;;;;;;;31.37;13.47;;;1.90;99.90;;;;;;5116471;28;20114;-78
2023/02/09 11:52:35;;;;;;;29.87;13.53;;;1.90;99.90;;;;;;5112571;28;20472;-76
2023/02/09 11:55:26;;;;;;;28.33;13.93;;;2.10;99.90;;;;;;5108298;28;20047;-78
2023/02/09 11:58:01;;;;;;;33.23;13.70;;;2.10;99.90;;;;;;5081902;28;20031;-76
2023/02/09 12:00:37;;;;;;;30.17;14.03;;;2.30;99.90;;;;;;5097026;28;20024;-77
2023/02/09 12:03:12;;;;;;;30.33;12.50;;;2.30;99.90;;;;;;5088462;28;20035;-77
2023/02/09 12:05:40;;;;;;;31.33;13.53;;;2.40;99.90;;;;;;5096191;28;20020;-78
2023/02/09 12:08:37;;;;;;;34.63;14.43;;;2.40;99.90;;;;;;5077872;28;20090;-78
2023/02/09 12:11:35;;;;;;;31.13;13.67;;;2.50;99.90;;;;;;5102744;28;20039;-84
2023/02/09 12:14:25;;;;;;;27.97;13.13;;;2.60;99.90;;;;;;5097182;28;20025;-84
2023/02/09 12:17:05;;;;;;;28.27;14.03;;;2.80;99.90;;;;;;5085936;28;20031;-80
2023/02/09 12:19:35;;;;;;;32.53;14.10;;;3.00;99.90;;;;;;5097697;28;20108;-80
2023/02/09 12:22:31;;;;;;;28.17;12.90;;;3.10;99.90;;;;;;5100667;28;20043;-79
2023/02/09 12:25:14;;;;;;;30.23;14.07;;;3.30;99.90;;;;;;5085997;28;20016;-80
2023/02/09 12:27:42;;;;;;;30.23;14.10;;;3.60;99.90;;;;;;5094007;28;20080;-80
2023/02/09 12:30:40;;;;;;;28.93;14.07;;;3.80;99.90;;;;;;5083084;28;20115;-80
2023/02/09 12:33:24;;;;;;;29.57;14.07;;;4.20;99.90;;;;;;5097687;28;20027;-79
2023/02/09 12:36:24;;;;;;;30.10;13.83;;;4.40;99.90;;;;;;5095107;28;20028;-84
2023/02/09 12:38:49;;;;;;;31.93;14.73;;;4.60;99.90;;;;;;5088934;28;20024;-81
2023/02/09 12:41:27;;;;;;;32.33;14.47;;;4.90;99.90;;;;;;5101007;28;20237;-80
2023/02/09 12:44:25;;;;;;;32.53;14.20;;;5.20;99.90;;;;;;5112453;28;20024;-81
2023/02/09 12:46:54;;;;;;;32.93;14.03;;;5.40;98.80;;;;;;5089014;28;20027;-80
2023/02/09 12:49:25;;;;;;;28.97;13.97;;;5.60;97.60;;;;;;5097990;28;20437;-82
2023/02/09 12:51:53;;;;;;;29.60;13.80;;;5.60;97.30;;;;;;5081191;28;20546;-80
2023/02/09 12:54:30;;;;;;;29.00;13.30;;;5.80;97.00;;;;;;5115818;28;20084;-84
2023/02/09 12:57:16;;;;;;;28.80;12.97;;;6.10;94.20;;;;;;5085141;28;20059;-80
2023/02/09 12:59:59;;;;;;;26.63;11.87;;;6.30;92.60;;;;;;5077238;28;20016;-80
2023/02/09 13:02:36;;;;;;;26.83;13.07;;;6.70;92.60;;;;;;5076732;28;20058;-81
2023/02/09 13:05:11;;;;;;;30.67;13.87;;;7.00;90.80;;;;;;5077466;28;20028;-80